sensor_id;sensor_type;location;lat;lon;timestamp;P1;durP1;ratioP1;P2;durP2;ratioP2
10341;SDS011;5216;54.602;18.356;2023-03-03T00:01:52;6.60;;;6.00;;
10341;SDS011;5216;54.602;18.356;2023-03-03T00:04:19;7.50;;;6.80;;
10341;SDS011;5216;54.602;18.356;2023-03-03T00:06:45;6.87;;;6.17;;
10341;SDS011;5216;54.602;18.356;2023-03-03T00:09:12;7.10;;;6.50;;
10341;SDS011;5216;54.602;18.356;2023-03-03T00:11:38;6.97;;;6.27;;
10341;SDS011;5216;54.602;18.356;2023-03-03T00:14:09;8.13;;;6.53;;
10341;SDS011;5216;54.602;18.356;2023-03-03T00:16:42;6.83;;;6.20;;
10341;SDS011;5216;54.602;18.356;2023-03-03T00:19:13;7.33;;;6.27;;
10341;SDS011;5216;54.602;18.356;2023-03-03T00:21:41;6.70;;;6.10;;
10341;SDS011;5216;54.602;18.356;2023-03-03T00:27:17;5.83;;;5.33;;
10341;SDS011;5216;54.602;18.356;2023-03-03T00:29:52;6.50;;;5.90;;
10341;SDS011;5216;54.602;18.356;2023-03-03T00:34:49;6.37;;;5.77;;
10341;SDS011;5216;54.602;18.356;2023-03-03T00:37:22;6.40;;;5.80;;
10341;SDS011;5216;54.602;18.356;2023-03-03T00:39:53;5.87;;;5.37;;
10341;SDS011;5216;54.602;18.356;2023-03-03T00:42:19;5.63;;;5.13;;
10341;SDS011;5216;54.602;18.356;2023-03-03T00:44:58;5.30;;;4.80;;
10341;SDS011;5216;54.602;18.356;2023-03-03T00:47:26;5.60;;;5.07;;
10341;SDS011;5216;54.602;18.356;2023-03-03T00:52:36;4.90;;;4.50;;
10341;SDS011;5216;54.602;18.356;2023-03-03T00:55:04;4.80;;;4.40;;
10341;SDS011;5216;54.602;18.356;2023-03-03T00:57:31;4.73;;;4.33;;
10341;SDS011;5216;54.602;18.356;2023-03-03T00:59:58;4.67;;;4.27;;
10341;SDS011;5216;54.602;18.356;2023-03-03T01:02:24;4.50;;;4.10;;
10341;SDS011;5216;54.602;18.356;2023-03-03T01:04:51;4.50;;;4.10;;
10341;SDS011;5216;54.602;18.356;2023-03-03T01:07:18;4.90;;;4.50;;
10341;SDS011;5216;54.602;18.356;2023-03-03T01:09:45;5.23;;;4.73;;
10341;SDS011;5216;54.602;18.356;2023-03-03T01:12:11;5.27;;;4.77;;
10341;SDS011;5216;54.602;18.356;2023-03-03T01:14:38;4.80;;;4.40;;
10341;SDS011;5216;54.602;18.356;2023-03-03T01:17:05;4.60;;;4.20;;
10341;SDS011;5216;54.602;18.356;2023-03-03T01:19:32;4.90;;;4.40;;
10341;SDS011;5216;54.602;18.356;2023-03-03T01:21:58;5.00;;;4.50;;
10341;SDS011;5216;54.602;18.356;2023-03-03T01:24:25;5.10;;;4.60;;
10341;SDS011;5216;54.602;18.356;2023-03-03T01:26:51;5.30;;;4.80;;
10341;SDS011;5216;54.602;18.356;2023-03-03T01:29:18;5.23;;;4.73;;
10341;SDS011;5216;54.602;18.356;2023-03-03T01:31:45;5.80;;;5.23;;
10341;SDS011;5216;54.602;18.356;2023-03-03T01:34:11;5.50;;;4.90;;
10341;SDS011;5216;54.602;18.356;2023-03-03T01:36:38;6.03;;;5.13;;
10341;SDS011;5216;54.602;18.356;2023-03-03T01:39:04;5.70;;;5.20;;
10341;SDS011;5216;54.602;18.356;2023-03-03T01:41:31;5.27;;;4.77;;
10341;SDS011;5216;54.602;18.356;2023-03-03T01:43:59;5.60;;;5.10;;
10341;SDS011;5216;54.602;18.356;2023-03-03T01:46:30;5.50;;;5.00;;
10341;SDS011;5216;54.602;18.356;2023-03-03T01:49:02;5.77;;;5.23;;
10341;SDS011;5216;54.602;18.356;2023-03-03T01:51:31;5.17;;;4.67;;
10341;SDS011;5216;54.602;18.356;2023-03-03T01:54:02;5.30;;;4.80;;
10341;SDS011;5216;54.602;18.356;2023-03-03T01:56:29;5.03;;;4.60;;
10341;SDS011;5216;54.602;18.356;2023-03-03T01:58:58;5.63;;;5.03;;
10341;SDS011;5216;54.602;18.356;2023-03-03T02:01:26;4.73;;;4.33;;
10341;SDS011;5216;54.602;18.356;2023-03-03T02:04:02;5.10;;;4.70;;
10341;SDS011;5216;54.602;18.356;2023-03-03T02:06:33;5.33;;;4.83;;
10341;SDS011;5216;54.602;18.356;2023-03-03T02:11:33;5.17;;;4.67;;
10341;SDS011;5216;54.602;18.356;2023-03-03T02:14:01;5.20;;;4.70;;
10341;SDS011;5216;54.602;18.356;2023-03-03T02:16:28;5.30;;;4.80;;
10341;SDS011;5216;54.602;18.356;2023-03-03T02:18:55;5.27;;;4.77;;
10341;SDS011;5216;54.602;18.356;2023-03-03T02:21:22;5.33;;;4.90;;
10341;SDS011;5216;54.602;18.356;2023-03-03T02:26:30;4.77;;;4.37;;
10341;SDS011;5216;54.602;18.356;2023-03-03T02:28:58;4.80;;;4.40;;
10341;SDS011;5216;54.602;18.356;2023-03-03T02:31:26;4.93;;;4.53;;
10341;SDS011;5216;54.602;18.356;2023-03-03T02:33:54;5.33;;;4.83;;
10341;SDS011;5216;54.602;18.356;2023-03-03T02:36:24;5.40;;;4.70;;
10341;SDS011;5216;54.602;18.356;2023-03-03T02:47:28;4.90;;;4.50;;
10341;SDS011;5216;54.602;18.356;2023-03-03T02:50:04;5.53;;;4.83;;
10341;SDS011;5216;54.602;18.356;2023-03-03T02:52:30;5.23;;;4.73;;
10341;SDS011;5216;54.602;18.356;2023-03-03T02:54:57;5.33;;;4.70;;
10341;SDS011;5216;54.602;18.356;2023-03-03T02:57:23;5.30;;;4.80;;
10341;SDS011;5216;54.602;18.356;2023-03-03T02:59:50;5.30;;;4.60;;
10341;SDS011;5216;54.602;18.356;2023-03-03T03:02:16;5.30;;;4.80;;
10341;SDS011;5216;54.602;18.356;2023-03-03T03:04:44;5.73;;;5.13;;
10341;SDS011;5216;54.602;18.356;2023-03-03T03:07:11;5.03;;;4.60;;
10341;SDS011;5216;54.602;18.356;2023-03-03T03:09:37;5.40;;;4.90;;
10341;SDS011;5216;54.602;18.356;2023-03-03T03:12:04;5.33;;;4.83;;
10341;SDS011;5216;54.602;18.356;2023-03-03T03:14:30;5.43;;;4.93;;
10341;SDS011;5216;54.602;18.356;2023-03-03T03:16:57;5.20;;;4.70;;
10341;SDS011;5216;54.602;18.356;2023-03-03T03:19:26;5.63;;;4.87;;
10341;SDS011;5216;54.602;18.356;2023-03-03T03:21:53;5.33;;;4.83;;
10341;SDS011;5216;54.602;18.356;2023-03-03T03:24:20;4.93;;;4.43;;
10341;SDS011;5216;54.602;18.356;2023-03-03T03:26:46;5.50;;;5.00;;
10341;SDS011;5216;54.602;18.356;2023-03-03T03:29:13;5.47;;;4.97;;
10341;SDS011;5216;54.602;18.356;2023-03-03T03:31:39;5.87;;;5.27;;
10341;SDS011;5216;54.602;18.356;2023-03-03T03:34:06;5.00;;;4.60;;
10341;SDS011;5216;54.602;18.356;2023-03-03T03:36:32;5.57;;;5.07;;
10341;SDS011;5216;54.602;18.356;2023-03-03T03:38:59;5.70;;;5.20;;
10341;SDS011;5216;54.602;18.356;2023-03-03T03:41:28;5.63;;;5.13;;
10341;SDS011;5216;54.602;18.356;2023-03-03T03:43:54;6.90;;;5.33;;
10341;SDS011;5216;54.602;18.356;2023-03-03T03:46:21;6.10;;;5.60;;
10341;SDS011;5216;54.602;18.356;2023-03-03T03:48:47;5.73;;;5.23;;
10341;SDS011;5216;54.602;18.356;2023-03-03T03:51:14;5.93;;;5.40;;
10341;SDS011;5216;54.602;18.356;2023-03-03T03:53:40;6.30;;;5.63;;
10341;SDS011;5216;54.602;18.356;2023-03-03T03:56:07;6.40;;;5.80;;
10341;SDS011;5216;54.602;18.356;2023-03-03T03:58:33;5.87;;;5.27;;
10341;SDS011;5216;54.602;18.356;2023-03-03T04:01:01;6.87;;;5.70;;
10341;SDS011;5216;54.602;18.356;2023-03-03T04:03:28;5.43;;;4.93;;
10341;SDS011;5216;54.602;18.356;2023-03-03T04:05:54;6.50;;;5.90;;
10341;SDS011;5216;54.602;18.356;2023-03-03T04:08:21;6.53;;;5.93;;
10341;SDS011;5216;54.602;18.356;2023-03-03T04:10:47;5.97;;;5.43;;
10341;SDS011;5216;54.602;18.356;2023-03-03T04:13:14;5.87;;;5.33;;
10341;SDS011;5216;54.602;18.356;2023-03-03T04:15:41;6.77;;;6.17;;
10341;SDS011;5216;54.602;18.356;2023-03-03T04:18:07;5.87;;;5.37;;
10341;SDS011;5216;54.602;18.356;2023-03-03T04:20:34;5.83;;;5.33;;
10341;SDS011;5216;54.602;18.356;2023-03-03T04:23:00;5.40;;;4.90;;
10341;SDS011;5216;54.602;18.356;2023-03-03T04:25:27;6.17;;;5.57;;
10341;SDS011;5216;54.602;18.356;2023-03-03T04:27:53;6.20;;;5.60;;
10341;SDS011;5216;54.602;18.356;2023-03-03T04:30:20;5.77;;;5.13;;
10341;SDS011;5216;54.602;18.356;2023-03-03T04:32:59;5.97;;;5.37;;
10341;SDS011;5216;54.602;18.356;2023-03-03T04:35:25;5.30;;;4.77;;
10341;SDS011;5216;54.602;18.356;2023-03-03T04:37:52;5.13;;;4.63;;
10341;SDS011;5216;54.602;18.356;2023-03-03T04:40:19;5.73;;;5.17;;
10341;SDS011;5216;54.602;18.356;2023-03-03T04:42:45;5.23;;;4.77;;
10341;SDS011;5216;54.602;18.356;2023-03-03T04:45:12;5.37;;;4.87;;
10341;SDS011;5216;54.602;18.356;2023-03-03T04:47:39;5.40;;;4.90;;
10341;SDS011;5216;54.602;18.356;2023-03-03T04:50:05;5.13;;;4.60;;
10341;SDS011;5216;54.602;18.356;2023-03-03T04:52:33;5.77;;;5.27;;
10341;SDS011;5216;54.602;18.356;2023-03-03T04:54:59;5.80;;;5.17;;
10341;SDS011;5216;54.602;18.356;2023-03-03T05:01:25;5.13;;;4.63;;
10341;SDS011;5216;54.602;18.356;2023-03-03T05:03:51;5.20;;;4.70;;
10341;SDS011;5216;54.602;18.356;2023-03-03T05:06:18;5.90;;;5.30;;
10341;SDS011;5216;54.602;18.356;2023-03-03T05:08:45;6.43;;;5.10;;
10341;SDS011;5216;54.602;18.356;2023-03-03T05:11:16;5.77;;;5.20;;
10341;SDS011;5216;54.602;18.356;2023-03-03T05:13:42;5.87;;;5.17;;
10341;SDS011;5216;54.602;18.356;2023-03-03T05:16:23;5.57;;;5.07;;
10341;SDS011;5216;54.602;18.356;2023-03-03T05:18:50;5.57;;;5.07;;
10341;SDS011;5216;54.602;18.356;2023-03-03T05:21:17;6.13;;;5.63;;
10341;SDS011;5216;54.602;18.356;2023-03-03T05:23:43;6.00;;;5.40;;
10341;SDS011;5216;54.602;18.356;2023-03-03T05:26:10;5.87;;;5.37;;
10341;SDS011;5216;54.602;18.356;2023-03-03T05:28:36;5.37;;;4.87;;
10341;SDS011;5216;54.602;18.356;2023-03-03T05:31:03;7.03;;;5.77;;
10341;SDS011;5216;54.602;18.356;2023-03-03T05:33:30;5.30;;;4.80;;
10341;SDS011;5216;54.602;18.356;2023-03-03T05:35:56;6.10;;;5.37;;
10341;SDS011;5216;54.602;18.356;2023-03-03T05:38:23;5.67;;;5.17;;
10341;SDS011;5216;54.602;18.356;2023-03-03T05:40:50;5.83;;;5.20;;
10341;SDS011;5216;54.602;18.356;2023-03-03T05:43:19;5.53;;;5.03;;
10341;SDS011;5216;54.602;18.356;2023-03-03T05:45:46;5.13;;;4.73;;
10341;SDS011;5216;54.602;18.356;2023-03-03T05:48:13;6.20;;;5.60;;
10341;SDS011;5216;54.602;18.356;2023-03-03T05:50:39;8.63;;;7.27;;
10341;SDS011;5216;54.602;18.356;2023-03-03T05:53:06;6.80;;;5.90;;
10341;SDS011;5216;54.602;18.356;2023-03-03T05:55:32;5.77;;;5.17;;
10341;SDS011;5216;54.602;18.356;2023-03-03T05:57:59;4.80;;;4.30;;
10341;SDS011;5216;54.602;18.356;2023-03-03T06:00:25;5.13;;;4.63;;
10341;SDS011;5216;54.602;18.356;2023-03-03T06:02:52;5.10;;;4.60;;
10341;SDS011;5216;54.602;18.356;2023-03-03T06:05:19;6.73;;;6.00;;
10341;SDS011;5216;54.602;18.356;2023-03-03T06:07:45;5.40;;;4.90;;
10341;SDS011;5216;54.602;18.356;2023-03-03T06:10:12;4.67;;;4.27;;
10341;SDS011;5216;54.602;18.356;2023-03-03T06:12:39;6.23;;;5.40;;
10341;SDS011;5216;54.602;18.356;2023-03-03T06:15:07;6.97;;;6.27;;
10341;SDS011;5216;54.602;18.356;2023-03-03T06:17:34;6.90;;;5.40;;
10341;SDS011;5216;54.602;18.356;2023-03-03T06:20:01;7.63;;;6.50;;
10341;SDS011;5216;54.602;18.356;2023-03-03T06:22:29;5.90;;;4.87;;
10341;SDS011;5216;54.602;18.356;2023-03-03T06:24:56;5.57;;;5.03;;
10341;SDS011;5216;54.602;18.356;2023-03-03T06:27:22;4.97;;;4.30;;
10341;SDS011;5216;54.602;18.356;2023-03-03T06:29:49;5.23;;;4.73;;
10341;SDS011;5216;54.602;18.356;2023-03-03T06:32:15;5.33;;;4.83;;
10341;SDS011;5216;54.602;18.356;2023-03-03T06:34:42;5.07;;;4.57;;
10341;SDS011;5216;54.602;18.356;2023-03-03T06:37:08;4.57;;;4.17;;
10341;SDS011;5216;54.602;18.356;2023-03-03T06:39:38;4.97;;;3.90;;
10341;SDS011;5216;54.602;18.356;2023-03-03T06:45:51;4.43;;;4.03;;
10341;SDS011;5216;54.602;18.356;2023-03-03T06:48:18;5.07;;;4.07;;
10341;SDS011;5216;54.602;18.356;2023-03-03T06:50:45;4.47;;;4.07;;
10341;SDS011;5216;54.602;18.356;2023-03-03T06:53:13;4.00;;;3.60;;
10341;SDS011;5216;54.602;18.356;2023-03-03T06:55:40;5.80;;;4.13;;
10341;SDS011;5216;54.602;18.356;2023-03-03T06:58:13;13.17;;;10.70;;
10341;SDS011;5216;54.602;18.356;2023-03-03T07:00:52;4.43;;;4.03;;
10341;SDS011;5216;54.602;18.356;2023-03-03T07:03:21;4.20;;;3.80;;
10341;SDS011;5216;54.602;18.356;2023-03-03T07:05:48;4.83;;;4.10;;
10341;SDS011;5216;54.602;18.356;2023-03-03T07:08:16;4.77;;;3.70;;
10341;SDS011;5216;54.602;18.356;2023-03-03T07:10:45;4.00;;;3.60;;
10341;SDS011;5216;54.602;18.356;2023-03-03T07:13:19;3.90;;;3.50;;
10341;SDS011;5216;54.602;18.356;2023-03-03T07:15:51;4.37;;;3.97;;
10341;SDS011;5216;54.602;18.356;2023-03-03T07:20:47;4.00;;;3.60;;
10341;SDS011;5216;54.602;18.356;2023-03-03T07:23:25;3.90;;;3.40;;
10341;SDS011;5216;54.602;18.356;2023-03-03T07:25:53;3.77;;;3.47;;
10341;SDS011;5216;54.602;18.356;2023-03-03T07:28:22;3.40;;;3.10;;
10341;SDS011;5216;54.602;18.356;2023-03-03T07:30:49;3.40;;;3.10;;
10341;SDS011;5216;54.602;18.356;2023-03-03T07:33:39;3.27;;;2.97;;
10341;SDS011;5216;54.602;18.356;2023-03-03T07:36:05;3.13;;;2.83;;
10341;SDS011;5216;54.602;18.356;2023-03-03T07:41:14;3.60;;;3.10;;
10341;SDS011;5216;54.602;18.356;2023-03-03T07:43:47;3.23;;;2.93;;
10341;SDS011;5216;54.602;18.356;2023-03-03T07:46:19;3.30;;;3.00;;
10341;SDS011;5216;54.602;18.356;2023-03-03T07:48:48;5.30;;;3.53;;
10341;SDS011;5216;54.602;18.356;2023-03-03T07:51:18;3.83;;;3.40;;
10341;SDS011;5216;54.602;18.356;2023-03-03T07:53:54;3.60;;;3.00;;
10341;SDS011;5216;54.602;18.356;2023-03-03T07:56:27;3.90;;;3.00;;
10341;SDS011;5216;54.602;18.356;2023-03-03T07:58:55;3.13;;;2.67;;
10341;SDS011;5216;54.602;18.356;2023-03-03T08:03:57;3.90;;;3.17;;
10341;SDS011;5216;54.602;18.356;2023-03-03T08:09:18;5.53;;;4.40;;
10341;SDS011;5216;54.602;18.356;2023-03-03T08:11:54;3.60;;;3.30;;
10341;SDS011;5216;54.602;18.356;2023-03-03T08:14:28;3.07;;;2.70;;
10341;SDS011;5216;54.602;18.356;2023-03-03T08:16:56;7.87;;;7.07;;
10341;SDS011;5216;54.602;18.356;2023-03-03T08:19:34;2.70;;;2.50;;
10341;SDS011;5216;54.602;18.356;2023-03-03T08:25:02;3.63;;;3.17;;
10341;SDS011;5216;54.602;18.356;2023-03-03T08:27:31;3.77;;;2.63;;
10341;SDS011;5216;54.602;18.356;2023-03-03T08:29:58;3.27;;;2.50;;
10341;SDS011;5216;54.602;18.356;2023-03-03T08:32:25;4.47;;;3.63;;
10341;SDS011;5216;54.602;18.356;2023-03-03T08:34:51;4.90;;;3.47;;
10341;SDS011;5216;54.602;18.356;2023-03-03T08:37:18;3.80;;;3.30;;
10341;SDS011;5216;54.602;18.356;2023-03-03T08:39:49;4.47;;;3.47;;
10341;SDS011;5216;54.602;18.356;2023-03-03T08:42:16;4.43;;;3.50;;
10341;SDS011;5216;54.602;18.356;2023-03-03T08:44:43;3.13;;;2.77;;
10341;SDS011;5216;54.602;18.356;2023-03-03T08:47:10;3.43;;;2.70;;
10341;SDS011;5216;54.602;18.356;2023-03-03T08:49:36;5.27;;;2.87;;
10341;SDS011;5216;54.602;18.356;2023-03-03T08:52:03;3.43;;;3.00;;
10341;SDS011;5216;54.602;18.356;2023-03-03T08:54:32;3.57;;;3.27;;
10341;SDS011;5216;54.602;18.356;2023-03-03T08:56:59;3.17;;;2.87;;
10341;SDS011;5216;54.602;18.356;2023-03-03T08:59:26;4.03;;;3.20;;
10341;SDS011;5216;54.602;18.356;2023-03-03T09:01:52;4.03;;;3.07;;
10341;SDS011;5216;54.602;18.356;2023-03-03T09:04:19;5.03;;;3.10;;
10341;SDS011;5216;54.602;18.356;2023-03-03T09:06:46;4.17;;;3.00;;
10341;SDS011;5216;54.602;18.356;2023-03-03T09:09:13;3.80;;;3.10;;
10341;SDS011;5216;54.602;18.356;2023-03-03T09:11:46;3.37;;;2.87;;
10341;SDS011;5216;54.602;18.356;2023-03-03T09:14:14;4.17;;;3.03;;
10341;SDS011;5216;54.602;18.356;2023-03-03T09:16:44;3.30;;;3.00;;
10341;SDS011;5216;54.602;18.356;2023-03-03T09:19:24;4.03;;;3.13;;
10341;SDS011;5216;54.602;18.356;2023-03-03T09:21:52;2.87;;;2.60;;
10341;SDS011;5216;54.602;18.356;2023-03-03T09:24:25;5.43;;;3.10;;
10341;SDS011;5216;54.602;18.356;2023-03-03T09:26:56;4.43;;;2.80;;
10341;SDS011;5216;54.602;18.356;2023-03-03T09:31:51;4.90;;;3.20;;
10341;SDS011;5216;54.602;18.356;2023-03-03T09:34:36;5.30;;;3.03;;
10341;SDS011;5216;54.602;18.356;2023-03-03T09:37:37;3.60;;;3.07;;
10341;SDS011;5216;54.602;18.356;2023-03-03T09:39:57;4.17;;;2.87;;
10341;SDS011;5216;54.602;18.356;2023-03-03T09:52:52;3.43;;;2.40;;
10341;SDS011;5216;54.602;18.356;2023-03-03T09:55:29;2.40;;;2.10;;
10341;SDS011;5216;54.602;18.356;2023-03-03T10:05:40;2.97;;;2.30;;
10341;SDS011;5216;54.602;18.356;2023-03-03T10:16:39;2.27;;;1.87;;
10341;SDS011;5216;54.602;18.356;2023-03-03T10:21:50;2.97;;;1.80;;
10341;SDS011;5216;54.602;18.356;2023-03-03T10:27:04;1.87;;;1.60;;
10341;SDS011;5216;54.602;18.356;2023-03-03T10:53:30;3.20;;;1.80;;
10341;SDS011;5216;54.602;18.356;2023-03-03T11:01:29;2.57;;;2.00;;
10341;SDS011;5216;54.602;18.356;2023-03-03T11:06:37;3.27;;;1.80;;
10341;SDS011;5216;54.602;18.356;2023-03-03T11:09:19;2.43;;;1.80;;
10341;SDS011;5216;54.602;18.356;2023-03-03T11:19:49;1.77;;;1.30;;
10341;SDS011;5216;54.602;18.356;2023-03-03T11:30:56;2.97;;;1.13;;
10341;SDS011;5216;54.602;18.356;2023-03-03T11:33:14;3.40;;;1.80;;
10341;SDS011;5216;54.602;18.356;2023-03-03T11:40:46;2.70;;;0.90;;
10341;SDS011;5216;54.602;18.356;2023-03-03T11:46:02;2.23;;;0.90;;
10341;SDS011;5216;54.602;18.356;2023-03-03T11:58:37;3.67;;;1.47;;
10341;SDS011;5216;54.602;18.356;2023-03-03T12:03:58;1.37;;;1.27;;
10341;SDS011;5216;54.602;18.356;2023-03-03T12:11:27;2.27;;;1.30;;
10341;SDS011;5216;54.602;18.356;2023-03-03T12:14:09;2.17;;;1.57;;
10341;SDS011;5216;54.602;18.356;2023-03-03T12:34:52;4.07;;;1.60;;
10341;SDS011;5216;54.602;18.356;2023-03-03T12:37:27;3.03;;;1.60;;
10341;SDS011;5216;54.602;18.356;2023-03-03T12:40:02;3.53;;;1.17;;
10341;SDS011;5216;54.602;18.356;2023-03-03T12:48:19;1.93;;;1.10;;
10341;SDS011;5216;54.602;18.356;2023-03-03T12:51:09;3.40;;;3.07;;
10341;SDS011;5216;54.602;18.356;2023-03-03T12:56:51;2.73;;;1.07;;
10341;SDS011;5216;54.602;18.356;2023-03-03T12:59:44;1.80;;;0.80;;
10341;SDS011;5216;54.602;18.356;2023-03-03T13:06:00;1.30;;;0.90;;
10341;SDS011;5216;54.602;18.356;2023-03-03T13:11:45;1.50;;;1.20;;
10341;SDS011;5216;54.602;18.356;2023-03-03T13:23:27;1.10;;;0.50;;
10341;SDS011;5216;54.602;18.356;2023-03-03T13:31:49;1.80;;;1.20;;
10341;SDS011;5216;54.602;18.356;2023-03-03T13:37:33;1.60;;;1.07;;
10341;SDS011;5216;54.602;18.356;2023-03-03T13:43:25;1.20;;;0.83;;
10341;SDS011;5216;54.602;18.356;2023-03-03T13:52:05;4.23;;;1.60;;
10341;SDS011;5216;54.602;18.356;2023-03-03T13:57:43;1.23;;;0.90;;
10341;SDS011;5216;54.602;18.356;2023-03-03T14:06:18;2.03;;;1.23;;
10341;SDS011;5216;54.602;18.356;2023-03-03T14:09:08;1.50;;;1.30;;
10341;SDS011;5216;54.602;18.356;2023-03-03T14:12:06;2.63;;;1.50;;
10341;SDS011;5216;54.602;18.356;2023-03-03T14:20:46;4.30;;;1.80;;
10341;SDS011;5216;54.602;18.356;2023-03-03T14:26:48;6.50;;;2.80;;
10341;SDS011;5216;54.602;18.356;2023-03-03T14:29:34;3.97;;;2.43;;
10341;SDS011;5216;54.602;18.356;2023-03-03T14:32:20;1.80;;;1.53;;
10341;SDS011;5216;54.602;18.356;2023-03-03T14:35:19;2.30;;;1.60;;
10341;SDS011;5216;54.602;18.356;2023-03-03T14:43:56;3.20;;;1.40;;
10341;SDS011;5216;54.602;18.356;2023-03-03T14:46:42;3.37;;;1.50;;
10341;SDS011;5216;54.602;18.356;2023-03-03T14:49:30;3.17;;;2.00;;
10341;SDS011;5216;54.602;18.356;2023-03-03T14:55:26;2.40;;;1.70;;
10341;SDS011;5216;54.602;18.356;2023-03-03T14:58:26;4.17;;;2.23;;
10341;SDS011;5216;54.602;18.356;2023-03-03T15:01:22;3.63;;;1.93;;
10341;SDS011;5216;54.602;18.356;2023-03-03T15:06:53;4.57;;;2.10;;
10341;SDS011;5216;54.602;18.356;2023-03-03T15:12:20;3.60;;;1.70;;
10341;SDS011;5216;54.602;18.356;2023-03-03T15:14:49;4.03;;;1.90;;
10341;SDS011;5216;54.602;18.356;2023-03-03T15:20:21;6.33;;;2.20;;
10341;SDS011;5216;54.602;18.356;2023-03-03T15:22:48;3.70;;;2.30;;
10341;SDS011;5216;54.602;18.356;2023-03-03T15:30:38;6.63;;;3.50;;
10341;SDS011;5216;54.602;18.356;2023-03-03T15:39:02;5.17;;;2.30;;
10341;SDS011;5216;54.602;18.356;2023-03-03T15:46:48;2.17;;;1.90;;
10341;SDS011;5216;54.602;18.356;2023-03-03T15:54:54;4.93;;;2.40;;
10341;SDS011;5216;54.602;18.356;2023-03-03T16:15:30;4.80;;;3.67;;
10341;SDS011;5216;54.602;18.356;2023-03-03T16:28:31;16.93;;;10.20;;
10341;SDS011;5216;54.602;18.356;2023-03-03T16:31:10;9.00;;;6.50;;
10341;SDS011;5216;54.602;18.356;2023-03-03T16:33:43;5.17;;;3.40;;
10341;SDS011;5216;54.602;18.356;2023-03-03T16:38:44;5.27;;;3.93;;
10341;SDS011;5216;54.602;18.356;2023-03-03T16:44:03;5.57;;;4.87;;
10341;SDS011;5216;54.602;18.356;2023-03-03T16:51:38;4.70;;;3.50;;
10341;SDS011;5216;54.602;18.356;2023-03-03T17:04:02;22.53;;;14.70;;
10341;SDS011;5216;54.602;18.356;2023-03-03T17:09:11;11.17;;;10.00;;
10341;SDS011;5216;54.602;18.356;2023-03-03T17:28:14;6.40;;;5.73;;
10341;SDS011;5216;54.602;18.356;2023-03-03T17:30:52;7.73;;;5.77;;
10341;SDS011;5216;54.602;18.356;2023-03-03T17:36:14;5.57;;;4.43;;
10341;SDS011;5216;54.602;18.356;2023-03-03T17:44:14;5.77;;;4.23;;
10341;SDS011;5216;54.602;18.356;2023-03-03T17:55:07;6.23;;;4.50;;
10341;SDS011;5216;54.602;18.356;2023-03-03T18:04:10;4.17;;;3.30;;
10341;SDS011;5216;54.602;18.356;2023-03-03T18:06:43;4.73;;;3.60;;
10341;SDS011;5216;54.602;18.356;2023-03-03T18:11:53;6.70;;;4.83;;
10341;SDS011;5216;54.602;18.356;2023-03-03T18:21:57;6.23;;;4.57;;
10341;SDS011;5216;54.602;18.356;2023-03-03T18:24:37;5.40;;;4.20;;
10341;SDS011;5216;54.602;18.356;2023-03-03T18:55:52;5.13;;;3.80;;
10341;SDS011;5216;54.602;18.356;2023-03-03T19:00:52;6.70;;;4.57;;
10341;SDS011;5216;54.602;18.356;2023-03-03T19:03:27;5.90;;;4.07;;
10341;SDS011;5216;54.602;18.356;2023-03-03T19:08:59;4.40;;;2.70;;
10341;SDS011;5216;54.602;18.356;2023-03-03T19:11:36;4.47;;;3.73;;
10341;SDS011;5216;54.602;18.356;2023-03-03T19:14:12;3.47;;;2.80;;
10341;SDS011;5216;54.602;18.356;2023-03-03T19:16:39;4.93;;;3.80;;
10341;SDS011;5216;54.602;18.356;2023-03-03T19:19:07;6.90;;;4.63;;
10341;SDS011;5216;54.602;18.356;2023-03-03T19:21:35;4.60;;;3.93;;
10341;SDS011;5216;54.602;18.356;2023-03-03T19:24:02;8.43;;;5.77;;
10341;SDS011;5216;54.602;18.356;2023-03-03T19:26:36;8.50;;;4.90;;
10341;SDS011;5216;54.602;18.356;2023-03-03T19:29:15;8.57;;;6.57;;
10341;SDS011;5216;54.602;18.356;2023-03-03T19:32:25;4.07;;;3.30;;
10341;SDS011;5216;54.602;18.356;2023-03-03T19:37:44;5.37;;;3.60;;
10341;SDS011;5216;54.602;18.356;2023-03-03T19:45:33;4.83;;;3.67;;
10341;SDS011;5216;54.602;18.356;2023-03-03T19:56:18;3.80;;;3.00;;
10341;SDS011;5216;54.602;18.356;2023-03-03T19:58:51;5.47;;;3.67;;
10341;SDS011;5216;54.602;18.356;2023-03-03T20:12:12;4.80;;;2.47;;
10341;SDS011;5216;54.602;18.356;2023-03-03T20:20:18;3.70;;;2.60;;
10341;SDS011;5216;54.602;18.356;2023-03-03T20:25:39;3.63;;;2.30;;
10341;SDS011;5216;54.602;18.356;2023-03-03T20:31:01;4.20;;;2.10;;
10341;SDS011;5216;54.602;18.356;2023-03-03T20:36:06;3.27;;;2.37;;
10341;SDS011;5216;54.602;18.356;2023-03-03T20:38:44;3.30;;;2.10;;
10341;SDS011;5216;54.602;18.356;2023-03-03T21:07:48;4.17;;;2.70;;
10341;SDS011;5216;54.602;18.356;2023-03-03T21:10:17;4.73;;;2.00;;
10341;SDS011;5216;54.602;18.356;2023-03-03T21:15:53;4.50;;;2.77;;
10341;SDS011;5216;54.602;18.356;2023-03-03T21:18:21;3.03;;;2.40;;
10341;SDS011;5216;54.602;18.356;2023-03-03T21:20:49;3.13;;;1.90;;
10341;SDS011;5216;54.602;18.356;2023-03-03T21:23:16;4.43;;;3.53;;
10341;SDS011;5216;54.602;18.356;2023-03-03T21:28:19;4.17;;;2.33;;
10341;SDS011;5216;54.602;18.356;2023-03-03T21:36:04;3.97;;;3.00;;
10341;SDS011;5216;54.602;18.356;2023-03-03T21:38:33;4.93;;;3.90;;
10341;SDS011;5216;54.602;18.356;2023-03-03T21:41:00;3.97;;;2.53;;
10341;SDS011;5216;54.602;18.356;2023-03-03T21:46:00;3.80;;;2.67;;
10341;SDS011;5216;54.602;18.356;2023-03-03T21:48:32;4.57;;;2.80;;
10341;SDS011;5216;54.602;18.356;2023-03-03T21:50:59;4.47;;;2.57;;
10341;SDS011;5216;54.602;18.356;2023-03-03T21:53:25;4.23;;;2.50;;
10341;SDS011;5216;54.602;18.356;2023-03-03T21:55:55;3.07;;;2.13;;
10341;SDS011;5216;54.602;18.356;2023-03-03T21:58:21;3.80;;;2.60;;
10341;SDS011;5216;54.602;18.356;2023-03-03T22:00:48;3.80;;;2.40;;
10341;SDS011;5216;54.602;18.356;2023-03-03T22:03:15;4.00;;;2.77;;
10341;SDS011;5216;54.602;18.356;2023-03-03T22:09:40;6.30;;;3.20;;
10341;SDS011;5216;54.602;18.356;2023-03-03T22:12:07;4.17;;;2.60;;
10341;SDS011;5216;54.602;18.356;2023-03-03T22:14:34;4.77;;;2.70;;
10341;SDS011;5216;54.602;18.356;2023-03-03T22:17:00;4.17;;;2.70;;
10341;SDS011;5216;54.602;18.356;2023-03-03T22:19:27;3.90;;;3.00;;
10341;SDS011;5216;54.602;18.356;2023-03-03T22:21:54;3.57;;;2.63;;
10341;SDS011;5216;54.602;18.356;2023-03-03T22:24:20;4.30;;;2.80;;
10341;SDS011;5216;54.602;18.356;2023-03-03T22:26:47;6.07;;;3.20;;
10341;SDS011;5216;54.602;18.356;2023-03-03T22:29:16;3.87;;;2.70;;
10341;SDS011;5216;54.602;18.356;2023-03-03T22:31:48;5.10;;;2.97;;
10341;SDS011;5216;54.602;18.356;2023-03-03T22:34:15;4.97;;;2.93;;
10341;SDS011;5216;54.602;18.356;2023-03-03T22:36:42;3.87;;;2.97;;
10341;SDS011;5216;54.602;18.356;2023-03-03T22:39:08;6.87;;;4.63;;
10341;SDS011;5216;54.602;18.356;2023-03-03T22:41:35;6.87;;;4.00;;
10341;SDS011;5216;54.602;18.356;2023-03-03T22:44:02;6.07;;;3.47;;
10341;SDS011;5216;54.602;18.356;2023-03-03T22:46:29;5.43;;;3.67;;
10341;SDS011;5216;54.602;18.356;2023-03-03T22:48:55;6.23;;;3.07;;
10341;SDS011;5216;54.602;18.356;2023-03-03T22:55:10;5.13;;;3.30;;
10341;SDS011;5216;54.602;18.356;2023-03-03T22:57:37;5.67;;;3.20;;
10341;SDS011;5216;54.602;18.356;2023-03-03T23:00:10;5.33;;;3.50;;
10341;SDS011;5216;54.602;18.356;2023-03-03T23:02:46;6.33;;;3.40;;
10341;SDS011;5216;54.602;18.356;2023-03-03T23:12:21;7.13;;;3.40;;
10341;SDS011;5216;54.602;18.356;2023-03-03T23:15:06;5.37;;;3.40;;
10341;SDS011;5216;54.602;18.356;2023-03-03T23:17:41;5.60;;;3.57;;
10341;SDS011;5216;54.602;18.356;2023-03-03T23:20:24;6.33;;;3.60;;
10341;SDS011;5216;54.602;18.356;2023-03-03T23:22:51;7.37;;;3.67;;
10341;SDS011;5216;54.602;18.356;2023-03-03T23:25:18;6.53;;;3.47;;
10341;SDS011;5216;54.602;18.356;2023-03-03T23:27:48;7.43;;;3.60;;
10341;SDS011;5216;54.602;18.356;2023-03-03T23:30:16;8.40;;;3.67;;